Time;durP1;ratioP1;P1;durP2;ratioP2;P2;SDS_P1;SDS_P2;PMS_P1;PMS_P2;Temp;Humidity;BMP_temperature;BMP_pressure;BME280_temperature;BME280_humidity;BME280_pressure;Samples;Min_cycle;Max_cycle;Signal;HPM_P1;HPM_P2
2022/08/25 00:01:13;;;;;;;6.80;3.80;;;20.40;99.90;;;;;;5094766;27;20208;-67
2022/08/25 00:03:40;;;;;;;4.75;3.78;;;20.40;99.90;;;;;;5095066;28;20197;-67
2022/08/25 00:06:07;;;;;;;5.18;3.65;;;20.30;99.90;;;;;;5096289;28;20165;-68
2022/08/25 00:08:36;;;;;;;7.05;3.90;;;20.30;99.90;;;;;;5094952;28;20255;-67
2022/08/25 00:11:10;;;;;;;6.50;3.92;;;20.30;99.90;;;;;;5096562;28;20165;-68
2022/08/25 00:13:38;;;;;;;7.72;3.70;;;20.30;99.90;;;;;;5096490;28;20196;-67
2022/08/25 00:16:04;;;;;;;10.88;4.07;;;20.30;99.90;;;;;;5094555;28;20181;-68
2022/08/25 00:18:29;;;;;;;6.53;4.15;;;20.20;99.90;;;;;;5095899;28;20843;-67
2022/08/25 00:20:55;;;;;;;9.70;4.25;;;20.20;99.90;;;;;;5096592;28;20197;-67
2022/08/25 00:23:21;;;;;;;8.15;4.30;;;20.10;99.90;;;;;;5096111;28;20185;-67
2022/08/25 00:25:48;;;;;;;5.35;4.10;;;20.10;99.90;;;;;;5095817;28;20173;-67
2022/08/25 00:28:15;;;;;;;6.07;3.83;;;20.10;99.90;;;;;;5095894;28;20256;-67
2022/08/25 00:30:41;;;;;;;5.68;4.25;;;20.10;99.90;;;;;;5095694;28;20169;-67
2022/08/25 00:33:08;;;;;;;7.78;4.00;;;20.00;99.90;;;;;;5095724;28;20201;-68
2022/08/25 00:35:34;;;;;;;5.55;3.92;;;20.10;99.90;;;;;;5094511;28;20234;-68
2022/08/25 00:38:00;;;;;;;5.68;4.22;;;20.00;99.90;;;;;;5111869;28;20352;-67
2022/08/25 00:40:27;;;;;;;6.80;4.20;;;20.00;99.90;;;;;;5114900;28;20208;-68
2022/08/25 00:42:54;;;;;;;9.57;4.50;;;20.00;99.90;;;;;;5116066;28;20212;-67
2022/08/25 00:45:22;;;;;;;7.05;3.92;;;19.90;99.90;;;;;;5116012;28;20169;-67
2022/08/25 00:47:48;;;;;;;6.18;3.78;;;19.90;99.90;;;;;;5115868;28;20169;-67
2022/08/25 00:50:14;;;;;;;4.95;4.03;;;19.80;99.90;;;;;;5114700;28;20241;-67
2022/08/25 00:52:46;;;;;;;8.50;4.38;;;19.80;99.90;;;;;;5115874;28;20200;-67
2022/08/25 00:55:27;;;;;;;7.20;4.20;;;19.70;99.90;;;;;;5116553;28;20169;-68
2022/08/25 00:57:52;;;;;;;4.07;3.65;;;19.70;99.90;;;;;;5115766;28;20614;-68
2022/08/25 01:00:24;;;;;;;6.50;4.60;;;19.70;99.90;;;;;;5115834;28;20184;-67
2022/08/25 01:02:49;;;;;;;6.20;4.20;;;19.60;99.90;;;;;;5114365;28;20192;-67
2022/08/25 01:05:18;;;;;;;6.65;4.05;;;19.60;99.90;;;;;;5115856;28;20686;-67
2022/08/25 01:07:45;;;;;;;7.80;4.75;;;19.60;99.90;;;;;;5115412;28;20204;-67
2022/08/25 01:10:12;;;;;;;7.82;4.47;;;19.60;99.90;;;;;;5115723;28;20195;-67
2022/08/25 01:12:39;;;;;;;8.43;4.15;;;19.60;99.90;;;;;;5115517;28;20700;-67
2022/08/25 01:15:07;;;;;;;8.32;4.60;;;19.50;99.90;;;;;;5115872;28;20206;-68
2022/08/25 01:17:44;;;;;;;7.00;4.25;;;19.40;99.90;;;;;;5115705;28;20202;-67
2022/08/25 01:20:10;;;;;;;6.65;4.50;;;19.30;99.90;;;;;;5117730;28;20250;-69
2022/08/25 01:22:36;;;;;;;5.88;4.60;;;19.30;99.90;;;;;;5119982;28;20196;-67
2022/08/25 01:25:11;;;;;;;6.97;4.55;;;19.20;99.90;;;;;;5118694;28;20690;-67
2022/08/25 01:27:36;;;;;;;8.38;4.82;;;19.20;99.90;;;;;;5117433;28;20160;-68
2022/08/25 01:30:03;;;;;;;5.95;4.47;;;19.10;99.90;;;;;;5117926;28;20546;-67
2022/08/25 01:32:32;;;;;;;7.68;4.32;;;19.00;99.90;;;;;;5116435;28;20188;-67
2022/08/25 01:34:58;;;;;;;5.78;4.53;;;19.00;99.90;;;;;;5115696;28;20172;-67
2022/08/25 01:37:24;;;;;;;5.10;4.10;;;19.00;99.90;;;;;;5115375;28;20649;-67
2022/08/25 01:39:49;;;;;;;4.93;4.15;;;19.00;99.90;;;;;;5115043;28;20210;-67
2022/08/25 01:42:28;;;;;;;7.80;4.82;;;19.10;99.90;;;;;;5114909;28;20184;-67
2022/08/25 01:44:54;;;;;;;5.63;4.43;;;19.10;99.90;;;;;;5115092;27;20157;-67
2022/08/25 01:47:19;;;;;;;6.72;4.50;;;19.00;99.90;;;;;;5113647;28;20263;-66
2022/08/25 01:49:45;;;;;;;4.75;4.00;;;19.00;99.90;;;;;;5114836;28;20211;-66
2022/08/25 01:52:16;;;;;;;5.07;4.00;;;19.00;99.90;;;;;;5114916;28;20198;-66
2022/08/25 01:54:41;;;;;;;5.43;4.25;;;19.10;99.90;;;;;;5113867;28;20533;-66
2022/08/25 01:57:07;;;;;;;6.78;4.45;;;19.00;99.90;;;;;;5114645;28;20255;-66
2022/08/25 01:59:33;;;;;;;6.75;4.40;;;19.00;99.90;;;;;;5114523;28;20204;-66
2022/08/25 02:01:59;;;;;;;7.00;4.57;;;19.00;99.90;;;;;;5114351;28;20169;-67
2022/08/25 02:04:25;;;;;;;6.65;4.15;;;19.00;99.90;;;;;;5114721;28;20172;-66
2022/08/25 02:06:51;;;;;;;6.57;4.60;;;19.00;99.90;;;;;;5114664;28;20168;-66
2022/08/25 02:09:17;;;;;;;6.88;4.40;;;18.90;99.90;;;;;;5113189;28;20548;-66
2022/08/25 02:11:45;;;;;;;6.45;4.40;;;18.90;99.90;;;;;;5114534;28;20176;-66
2022/08/25 02:14:13;;;;;;;8.02;4.60;;;18.90;99.90;;;;;;5114695;28;20546;-66
2022/08/25 02:16:41;;;;;;;10.57;5.25;;;18.80;99.90;;;;;;5114144;28;20173;-66
2022/08/25 02:19:10;;;;;;;8.25;4.65;;;18.80;99.90;;;;;;5114247;28;20243;-66
2022/08/25 02:21:36;;;;;;;7.00;4.75;;;18.70;99.90;;;;;;5114403;28;20279;-66
2022/08/25 02:24:03;;;;;;;5.88;4.25;;;18.70;99.90;;;;;;5114500;28;20192;-66
2022/08/25 02:26:29;;;;;;;7.10;4.72;;;18.70;99.90;;;;;;5112999;28;20172;-66
2022/08/25 02:28:55;;;;;;;5.57;4.50;;;18.70;99.90;;;;;;5114415;28;20637;-66
2022/08/25 02:31:23;;;;;;;6.03;4.80;;;18.60;99.90;;;;;;5114002;28;20219;-66
2022/08/25 02:33:51;;;;;;;5.28;4.75;;;18.60;99.90;;;;;;5113167;28;20207;-66
2022/08/25 02:36:18;;;;;;;6.18;4.30;;;18.50;99.90;;;;;;5114055;28;20176;-66
2022/08/25 02:38:44;;;;;;;6.88;4.60;;;18.50;99.90;;;;;;5114150;28;20188;-66
2022/08/25 02:41:18;;;;;;;7.25;4.70;;;18.50;99.90;;;;;;5112814;28;20211;-67
2022/08/25 02:43:45;;;;;;;6.45;4.63;;;18.50;99.90;;;;;;5114151;28;20585;-66
2022/08/25 02:46:11;;;;;;;5.43;4.60;;;18.50;99.90;;;;;;5113823;28;20172;-67
2022/08/25 02:48:38;;;;;;;6.97;4.82;;;18.50;99.90;;;;;;5113872;28;20172;-66
2022/08/25 02:51:05;;;;;;;7.57;5.18;;;18.50;99.90;;;;;;5113947;28;20306;-66
2022/08/25 02:53:33;;;;;;;5.97;4.57;;;18.50;99.90;;;;;;5112634;28;20200;-66
2022/08/25 02:55:59;;;;;;;7.10;5.15;;;18.40;99.90;;;;;;5114166;28;20258;-66
2022/08/25 02:58:25;;;;;;;7.60;4.88;;;18.40;99.90;;;;;;5118117;28;20517;-66
2022/08/25 03:00:51;;;;;;;6.50;4.72;;;18.40;99.90;;;;;;5116599;28;20200;-66
2022/08/25 03:03:17;;;;;;;6.15;4.68;;;18.40;99.90;;;;;;5117574;28;20184;-66
2022/08/25 03:05:43;;;;;;;6.82;4.80;;;18.30;99.90;;;;;;5117761;28;20164;-66
2022/08/25 03:08:09;;;;;;;6.85;4.63;;;18.30;99.90;;;;;;5117543;28;20180;-66
2022/08/25 03:10:35;;;;;;;8.45;4.75;;;18.30;99.90;;;;;;5117806;28;20173;-66
2022/08/25 03:13:01;;;;;;;5.13;4.50;;;18.30;99.90;;;;;;5117594;28;20188;-66
2022/08/25 03:15:27;;;;;;;6.03;4.55;;;18.30;99.90;;;;;;5118259;28;20179;-66
2022/08/25 03:17:54;;;;;;;10.52;4.82;;;18.20;99.90;;;;;;5117573;28;20172;-66
2022/08/25 03:20:26;;;;;;;6.10;4.50;;;18.20;99.90;;;;;;5116418;28;20546;-66
2022/08/25 03:22:52;;;;;;;5.85;4.70;;;18.10;99.90;;;;;;5117620;28;20191;-66
2022/08/25 03:28:22;;;;;;;7.38;4.70;;;18.10;99.90;;;;;;5116953;28;20168;-67
2022/08/25 03:30:48;;;;;;;8.45;4.65;;;18.10;99.90;;;;;;5115539;28;20177;-67
2022/08/25 03:33:14;;;;;;;7.50;5.20;;;18.00;99.90;;;;;;5104435;28;20288;-67
2022/08/25 03:35:39;;;;;;;6.57;4.38;;;18.00;99.90;;;;;;5117488;28;20573;-67
2022/08/25 03:38:05;;;;;;;7.97;4.90;;;18.00;99.90;;;;;;5117236;28;20267;-67
2022/08/25 03:40:31;;;;;;;7.25;4.65;;;17.90;99.90;;;;;;5117211;28;20192;-67
2022/08/25 03:42:57;;;;;;;7.18;4.90;;;17.90;99.90;;;;;;5117435;28;20215;-67
2022/08/25 03:45:24;;;;;;;7.50;4.75;;;17.90;99.90;;;;;;5117184;28;20168;-67
2022/08/25 03:47:51;;;;;;;7.25;4.60;;;17.90;99.90;;;;;;5116805;28;20172;-67
2022/08/25 03:50:19;;;;;;;9.30;5.25;;;17.90;99.90;;;;;;5117468;27;20177;-67
2022/08/25 03:52:51;;;;;;;8.35;4.95;;;17.90;99.90;;;;;;5117177;28;20189;-67
2022/08/25 03:55:17;;;;;;;7.93;5.10;;;17.80;99.90;;;;;;5117544;28;20153;-67
2022/08/25 03:57:43;;;;;;;9.60;5.25;;;17.70;99.90;;;;;;5117276;28;20183;-67
2022/08/25 04:00:11;;;;;;;12.00;5.38;;;17.70;99.90;;;;;;5116736;28;20192;-67
2022/08/25 04:02:38;;;;;;;7.72;5.38;;;17.70;99.90;;;;;;5115134;28;20195;-67
2022/08/25 04:05:04;;;;;;;8.98;5.20;;;17.60;99.90;;;;;;5116888;28;20192;-67
2022/08/25 04:07:30;;;;;;;7.07;5.25;;;17.60;99.90;;;;;;5116626;28;20188;-67
2022/08/25 04:09:55;;;;;;;8.77;4.90;;;17.50;99.90;;;;;;5116665;28;20171;-67
2022/08/25 04:12:22;;;;;;;6.28;4.78;;;17.40;99.90;;;;;;5115105;28;20560;-67
2022/08/25 04:14:48;;;;;;;6.78;5.38;;;17.40;99.90;;;;;;5116755;28;20181;-67
2022/08/25 04:17:13;;;;;;;8.13;5.53;;;17.40;99.90;;;;;;5116411;28;20179;-67
2022/08/25 04:19:39;;;;;;;7.45;5.40;;;17.30;99.90;;;;;;5116347;28;20212;-67
2022/08/25 04:22:05;;;;;;;5.93;5.03;;;17.30;99.90;;;;;;5116573;28;20179;-67
2022/08/25 04:24:31;;;;;;;6.38;4.78;;;17.30;99.90;;;;;;5116515;28;20526;-68
2022/08/25 04:26:57;;;;;;;9.57;5.38;;;17.20;99.90;;;;;;5116578;28;20222;-67
2022/08/25 04:29:24;;;;;;;6.70;5.38;;;17.20;99.90;;;;;;5117024;28;20230;-67
2022/08/25 04:31:52;;;;;;;10.07;5.25;;;17.20;99.90;;;;;;5114761;28;20645;-67
2022/08/25 04:34:20;;;;;;;6.38;5.50;;;17.20;99.90;;;;;;5115035;28;20222;-67
2022/08/25 04:36:46;;;;;;;8.45;5.47;;;17.20;99.90;;;;;;5114636;28;20601;-67
2022/08/25 04:39:12;;;;;;;7.80;5.82;;;17.10;99.90;;;;;;5114718;28;20207;-67
2022/08/25 04:41:38;;;;;;;8.27;5.18;;;17.10;99.90;;;;;;5116533;27;20235;-67
2022/08/25 04:44:05;;;;;;;8.82;5.15;;;17.10;99.90;;;;;;5114666;28;20196;-67
2022/08/25 04:46:32;;;;;;;6.95;5.30;;;17.10;99.90;;;;;;5115533;28;20251;-67
2022/08/25 04:49:00;;;;;;;7.03;5.15;;;17.10;99.90;;;;;;5114663;28;20176;-67
2022/08/25 04:51:32;;;;;;;7.10;5.55;;;17.10;99.90;;;;;;5114743;28;20184;-67
2022/08/25 04:54:00;;;;;;;7.47;5.40;;;17.20;99.90;;;;;;5116382;28;20188;-67
2022/08/25 04:56:27;;;;;;;6.72;5.80;;;17.20;99.90;;;;;;5117058;28;20198;-68
2022/08/25 04:58:54;;;;;;;9.90;6.43;;;17.20;99.90;;;;;;5116399;28;20172;-67
2022/08/25 05:01:24;;;;;;;9.73;6.35;;;17.20;99.90;;;;;;5114139;28;20204;-68
2022/08/25 05:03:56;;;;;;;7.10;5.43;;;17.20;99.90;;;;;;5115186;28;20189;-69
2022/08/25 05:06:23;;;;;;;6.68;5.57;;;17.10;99.90;;;;;;5115512;28;20165;-68
2022/08/25 05:08:48;;;;;;;7.68;5.68;;;17.10;99.90;;;;;;5115604;28;20176;-68
2022/08/25 05:11:16;;;;;;;6.95;5.10;;;17.20;99.90;;;;;;5115199;28;20183;-67
2022/08/25 05:13:43;;;;;;;7.50;5.70;;;17.30;99.90;;;;;;5115096;28;20278;-68
2022/08/25 05:16:09;;;;;;;10.05;6.07;;;17.30;99.90;;;;;;5115178;28;20223;-68
2022/08/25 05:18:35;;;;;;;9.38;6.13;;;17.30;99.90;;;;;;5113579;28;20676;-68
2022/08/25 05:21:03;;;;;;;8.70;6.25;;;17.30;99.90;;;;;;5113969;27;20533;-68
2022/08/25 05:23:29;;;;;;;7.75;5.88;;;17.30;99.90;;;;;;5113525;28;20192;-67
2022/08/25 05:26:00;;;;;;;11.40;6.20;;;17.40;99.90;;;;;;5114880;28;20169;-67
2022/08/25 05:28:25;;;;;;;7.72;5.63;;;17.50;99.90;;;;;;5113529;28;20637;-68
2022/08/25 05:30:58;;;;;;;8.43;6.07;;;17.50;99.90;;;;;;5115058;28;20178;-68
2022/08/25 05:33:23;;;;;;;8.60;6.22;;;17.60;99.90;;;;;;5114538;28;20606;-67
2022/08/25 05:35:50;;;;;;;6.85;6.15;;;17.70;99.90;;;;;;5113345;28;20172;-68
2022/08/25 05:38:16;;;;;;;6.47;5.80;;;17.80;99.90;;;;;;5114919;28;20549;-68
2022/08/25 05:40:42;;;;;;;8.52;6.78;;;17.80;99.90;;;;;;5114560;28;20211;-68
2022/08/25 05:43:08;;;;;;;8.88;6.55;;;17.80;99.90;;;;;;5114854;28;20188;-67
2022/08/25 05:45:34;;;;;;;8.35;6.10;;;17.90;99.90;;;;;;5114368;28;20530;-68
2022/08/25 05:48:01;;;;;;;9.35;6.40;;;18.00;99.90;;;;;;5114295;28;20175;-67
2022/08/25 05:50:27;;;;;;;8.52;6.05;;;18.00;99.90;;;;;;5114357;28;20184;-68
2022/08/25 05:52:53;;;;;;;8.95;6.13;;;18.10;99.90;;;;;;5114902;28;20196;-68
2022/08/25 05:55:19;;;;;;;7.57;6.00;;;18.20;99.90;;;;;;5113414;28;20271;-67
2022/08/25 05:57:44;;;;;;;7.80;6.05;;;18.30;99.90;;;;;;5114332;28;20191;-68
2022/08/25 06:00:11;;;;;;;11.40;6.72;;;18.40;99.90;;;;;;5114365;28;20211;-68
2022/08/25 06:02:46;;;;;;;9.02;6.38;;;18.40;99.90;;;;;;5112595;28;20275;-67
2022/08/25 06:05:21;;;;;;;10.43;6.53;;;18.50;99.90;;;;;;5114518;28;20244;-68
2022/08/25 06:07:48;;;;;;;8.25;5.93;;;18.60;99.90;;;;;;5114319;28;20179;-67
2022/08/25 06:10:15;;;;;;;10.85;6.15;;;18.70;99.90;;;;;;5114631;28;20549;-68
2022/08/25 06:12:46;;;;;;;10.50;7.10;;;18.70;99.90;;;;;;5112744;28;20211;-68
2022/08/25 06:15:14;;;;;;;13.95;6.75;;;18.80;99.90;;;;;;5114332;28;20153;-68
2022/08/25 06:17:41;;;;;;;7.95;6.10;;;18.90;99.90;;;;;;5112587;28;20199;-68
2022/08/25 06:20:19;;;;;;;8.73;6.18;;;19.00;99.90;;;;;;5112585;28;20215;-68
2022/08/25 06:22:45;;;;;;;6.97;6.10;;;19.10;99.90;;;;;;5112562;28;20278;-68
2022/08/25 06:25:14;;;;;;;10.60;5.82;;;19.20;99.90;;;;;;5114204;28;20748;-68
2022/08/25 06:27:40;;;;;;;7.05;5.53;;;19.30;99.90;;;;;;5114324;28;20160;-68
2022/08/25 06:30:09;;;;;;;10.05;6.45;;;19.40;99.90;;;;;;5112621;28;20169;-67
2022/08/25 06:32:37;;;;;;;8.98;5.95;;;19.50;99.90;;;;;;5113258;28;20245;-67
2022/08/25 06:35:05;;;;;;;7.63;5.47;;;19.60;99.90;;;;;;5113803;28;20176;-68
2022/08/25 06:37:30;;;;;;;8.50;5.68;;;19.70;99.90;;;;;;5114012;28;20534;-67
2022/08/25 06:39:56;;;;;;;7.00;5.72;;;19.80;99.90;;;;;;5112959;28;20200;-65
2022/08/25 06:42:24;;;;;;;7.75;5.43;;;19.90;99.90;;;;;;5120426;28;20189;-66
2022/08/25 06:44:50;;;;;;;8.40;5.65;;;20.00;99.90;;;;;;5119372;28;20172;-67
2022/08/25 06:47:17;;;;;;;6.72;5.30;;;20.20;99.90;;;;;;5113051;28;20169;-66
2022/08/25 06:49:43;;;;;;;7.93;6.13;;;20.30;99.90;;;;;;5114628;28;20180;-67
2022/08/25 06:52:09;;;;;;;8.57;5.78;;;20.40;99.90;;;;;;5115709;28;20173;-66
2022/08/25 06:54:36;;;;;;;9.30;6.05;;;20.60;99.90;;;;;;5116003;28;20176;-66
2022/08/25 06:57:02;;;;;;;6.18;5.28;;;20.70;99.90;;;;;;5112804;28;20206;-67
2022/08/25 06:59:28;;;;;;;6.53;5.50;;;20.80;99.90;;;;;;5116152;28;20534;-66
2022/08/25 07:01:54;;;;;;;9.25;5.40;;;20.90;99.90;;;;;;5115429;28;20176;-68
2022/08/25 07:04:20;;;;;;;9.55;5.22;;;21.00;99.90;;;;;;5119428;28;20599;-66
2022/08/25 07:06:47;;;;;;;6.85;5.22;;;21.10;99.90;;;;;;5108446;28;20177;-66
2022/08/25 07:09:13;;;;;;;8.48;5.65;;;21.20;99.90;;;;;;5094089;28;20169;-66
2022/08/25 07:11:40;;;;;;;8.48;5.80;;;21.40;99.90;;;;;;5092939;28;20165;-67
2022/08/25 07:14:08;;;;;;;6.28;5.25;;;21.50;99.90;;;;;;5092575;28;20193;-66
2022/08/25 07:16:34;;;;;;;6.53;5.22;;;21.60;99.90;;;;;;5092626;28;20703;-67
2022/08/25 07:19:01;;;;;;;7.85;5.32;;;21.70;99.90;;;;;;5093539;28;20196;-67
2022/08/25 07:21:29;;;;;;;8.27;5.57;;;21.80;99.90;;;;;;5095335;28;20219;-66
2022/08/25 07:23:57;;;;;;;7.60;5.60;;;21.90;99.90;;;;;;5093866;28;20207;-67
2022/08/25 07:26:27;;;;;;;9.00;5.75;;;22.00;99.90;;;;;;5093419;28;20205;-66
2022/08/25 07:28:53;;;;;;;7.88;5.20;;;22.10;99.90;;;;;;5093680;28;20177;-66
2022/08/25 07:31:19;;;;;;;7.75;5.47;;;22.20;99.90;;;;;;5094822;28;20529;-66
2022/08/25 07:36:30;;;;;;;6.47;5.45;;;22.40;99.90;;;;;;5094123;28;20212;-67
2022/08/25 07:39:04;;;;;;;7.65;5.53;;;22.50;99.90;;;;;;5093308;28;20169;-66
2022/08/25 07:41:31;;;;;;;9.00;6.07;;;22.60;99.90;;;;;;5093931;28;20189;-66
2022/08/25 07:43:57;;;;;;;6.18;5.57;;;22.70;99.90;;;;;;5093264;28;20220;-66
2022/08/25 07:46:23;;;;;;;9.93;5.53;;;22.80;99.90;;;;;;5096974;28;20196;-66
2022/08/25 07:48:48;;;;;;;9.20;5.78;;;22.90;99.90;;;;;;5096696;28;20158;-66
2022/08/25 07:51:14;;;;;;;10.45;5.40;;;23.00;99.90;;;;;;5096743;28;20174;-66
2022/08/25 07:53:41;;;;;;;8.15;5.85;;;23.10;99.90;;;;;;5095615;28;20739;-66
2022/08/25 07:56:12;;;;;;;9.25;5.70;;;23.20;99.90;;;;;;5096615;28;20599;-66
2022/08/25 07:58:39;;;;;;;8.57;6.03;;;23.30;99.90;;;;;;5095171;28;20552;-66
2022/08/25 08:01:06;;;;;;;9.13;5.90;;;23.40;99.90;;;;;;5096586;28;20193;-66
2022/08/25 08:03:33;;;;;;;7.90;5.50;;;23.50;99.90;;;;;;5096124;28;20235;-66
2022/08/25 08:06:00;;;;;;;10.40;5.97;;;23.60;99.90;;;;;;5095041;28;20575;-66
2022/08/25 08:08:27;;;;;;;7.97;5.80;;;23.60;99.90;;;;;;5096081;28;20181;-66
2022/08/25 08:10:53;;;;;;;10.05;6.40;;;23.70;99.90;;;;;;5096148;28;20184;-67
2022/08/25 08:13:19;;;;;;;7.50;5.70;;;23.80;99.90;;;;;;5094849;28;20193;-66
2022/08/25 08:15:45;;;;;;;7.75;5.78;;;24.00;99.90;;;;;;5094731;28;20673;-66
2022/08/25 08:18:11;;;;;;;8.52;6.15;;;24.10;99.90;;;;;;5095713;28;20181;-67
2022/08/25 08:20:37;;;;;;;9.35;6.25;;;24.20;99.90;;;;;;5094648;28;20212;-67
2022/08/25 08:23:03;;;;;;;9.38;6.40;;;24.30;99.90;;;;;;5095924;28;20200;-67
2022/08/25 08:25:29;;;;;;;10.80;6.13;;;24.40;99.90;;;;;;5095854;28;20222;-67
2022/08/25 08:27:55;;;;;;;9.88;6.18;;;24.50;99.90;;;;;;5095907;28;20169;-67
2022/08/25 08:30:22;;;;;;;9.68;5.43;;;24.60;99.90;;;;;;5094362;28;20184;-67
2022/08/25 08:32:50;;;;;;;8.45;5.78;;;24.70;99.90;;;;;;5095328;28;20666;-67
2022/08/25 08:35:17;;;;;;;10.00;5.88;;;24.80;99.90;;;;;;5095649;28;20181;-67
2022/08/25 08:37:45;;;;;;;8.18;5.88;;;25.00;99.90;;;;;;5095599;28;20645;-67
2022/08/25 08:40:14;;;;;;;7.35;5.60;;;25.20;99.90;;;;;;5095778;28;20208;-67
2022/08/25 08:43:01;;;;;;;7.00;5.45;;;25.30;99.90;;;;;;5095358;28;20185;-68
2022/08/25 08:45:37;;;;;;;7.50;5.53;;;25.50;99.90;;;;;;5095620;28;20157;-68
2022/08/25 08:48:06;;;;;;;7.30;5.25;;;25.50;99.90;;;;;;5094239;28;20515;-68
2022/08/25 08:50:37;;;;;;;8.80;5.97;;;25.70;99.90;;;;;;5095380;28;20219;-68
2022/08/25 08:53:09;;;;;;;8.18;5.75;;;25.90;99.90;;;;;;5093987;28;20254;-68
2022/08/25 08:55:40;;;;;;;8.32;5.63;;;26.00;99.90;;;;;;5093939;28;20255;-68
2022/08/25 08:58:18;;;;;;;8.80;5.28;;;26.20;99.90;;;;;;5095446;28;20168;-68
2022/08/25 09:00:50;;;;;;;7.57;5.88;;;26.20;99.90;;;;;;5095048;28;20669;-68
2022/08/25 09:03:45;;;;;;;10.85;5.20;;;26.40;99.90;;;;;;5094974;28;20189;-67
2022/08/25 09:06:17;;;;;;;7.03;4.90;;;26.60;99.90;;;;;;5095067;28;20657;-67
2022/08/25 09:08:43;;;;;;;8.63;5.97;;;26.80;99.90;;;;;;5094772;28;20524;-67
2022/08/25 09:11:32;;;;;;;7.88;6.18;;;26.90;99.90;;;;;;5094881;28;20172;-67
2022/08/25 09:14:20;;;;;;;8.38;5.70;;;27.10;99.90;;;;;;5093666;28;20589;-67
2022/08/25 09:16:58;;;;;;;9.05;5.82;;;27.30;99.90;;;;;;5095293;28;20206;-67
2022/08/25 09:19:48;;;;;;;8.25;6.30;;;27.50;99.90;;;;;;5094298;28;20189;-67
2022/08/25 09:22:18;;;;;;;7.88;5.57;;;27.70;99.90;;;;;;5093289;28;20185;-67
2022/08/25 09:25:13;;;;;;;9.32;5.70;;;27.80;99.90;;;;;;5094569;28;20192;-67
2022/08/25 09:27:45;;;;;;;8.63;5.95;;;27.90;99.90;;;;;;5093277;28;20546;-67
2022/08/25 09:30:17;;;;;;;7.15;5.22;;;28.10;99.90;;;;;;5094524;28;20200;-67
2022/08/25 09:32:50;;;;;;;9.25;6.25;;;28.20;99.90;;;;;;5094650;28;20196;-67
2022/08/25 09:35:38;;;;;;;10.52;5.80;;;28.30;99.90;;;;;;5094338;28;20204;-67
2022/08/25 09:38:08;;;;;;;9.38;5.47;;;28.40;99.90;;;;;;5094196;28;20177;-67
2022/08/25 09:40:44;;;;;;;9.23;6.05;;;28.50;99.90;;;;;;5094500;28;20200;-67
2022/08/25 09:43:27;;;;;;;11.35;5.85;;;28.60;99.90;;;;;;5094501;28;20195;-67
2022/08/25 09:46:09;;;;;;;8.50;5.53;;;28.70;99.90;;;;;;5094242;28;20169;-67
2022/08/25 09:48:45;;;;;;;10.15;5.75;;;28.80;99.90;;;;;;5094013;28;20161;-67
2022/08/25 09:51:26;;;;;;;6.25;4.88;;;28.80;99.90;;;;;;5094166;28;20176;-67
2022/08/25 09:53:56;;;;;;;7.07;5.30;;;28.80;99.90;;;;;;5094082;28;20196;-67
2022/08/25 09:56:25;;;;;;;8.30;5.78;;;28.80;99.90;;;;;;5092751;28;20200;-67
2022/08/25 09:58:51;;;;;;;6.43;4.82;;;28.80;99.90;;;;;;5094244;28;20177;-67
2022/08/25 10:01:20;;;;;;;6.75;5.07;;;28.90;99.90;;;;;;5092654;28;20295;-67
2022/08/25 10:03:54;;;;;;;6.60;5.55;;;28.90;99.90;;;;;;5093659;28;20192;-67
2022/08/25 10:06:21;;;;;;;7.88;4.90;;;28.90;99.90;;;;;;5092256;28;20548;-68
2022/08/25 10:08:47;;;;;;;8.63;5.13;;;29.00;99.90;;;;;;5094221;28;20257;-67
2022/08/25 10:11:29;;;;;;;7.50;4.88;;;29.00;99.90;;;;;;5093947;28;20181;-67
2022/08/25 10:14:17;;;;;;;8.13;5.65;;;29.10;99.90;;;;;;5093851;28;20231;-67
2022/08/25 10:16:45;;;;;;;7.90;4.40;;;29.20;99.90;;;;;;5093782;28;20180;-67
2022/08/25 10:19:21;;;;;;;5.75;4.47;;;29.20;99.90;;;;;;5093515;28;20663;-68
2022/08/25 10:22:03;;;;;;;7.10;4.60;;;29.30;99.90;;;;;;5094173;28;20253;-68
2022/08/25 10:24:28;;;;;;;5.47;4.57;;;29.30;99.90;;;;;;5094056;28;20168;-68
2022/08/25 10:27:04;;;;;;;5.68;4.72;;;29.30;99.90;;;;;;5094579;28;20174;-68
2022/08/25 10:29:44;;;;;;;7.43;4.93;;;29.40;99.90;;;;;;5092735;28;20179;-69
2022/08/25 10:32:20;;;;;;;6.70;4.90;;;29.40;99.90;;;;;;5093782;28;20175;-68
2022/08/25 10:34:52;;;;;;;7.40;5.28;;;29.40;99.90;;;;;;5095380;28;20168;-68
2022/08/25 10:37:57;;;;;;;8.35;5.15;;;29.40;99.90;;;;;;5096249;28;20263;-68
2022/08/25 10:40:35;;;;;;;7.82;5.10;;;29.40;99.90;;;;;;5092664;28;20204;-68
2022/08/25 10:43:06;;;;;;;6.10;4.72;;;29.40;99.90;;;;;;5094085;28;20188;-68
2022/08/25 10:46:25;;;;;;;9.32;4.90;;;29.40;99.90;;;;;;5093949;28;20175;-67
2022/08/25 10:48:57;;;;;;;6.55;4.43;;;29.40;99.90;;;;;;5088973;28;20189;-67
2022/08/25 10:51:26;;;;;;;6.07;4.38;;;29.50;99.90;;;;;;5093521;28;20165;-67
2022/08/25 10:54:06;;;;;;;9.27;4.50;;;29.50;99.90;;;;;;5093605;28;20189;-67
2022/08/25 10:56:40;;;;;;;6.50;4.53;;;29.50;99.90;;;;;;5093395;28;20166;-67
2022/08/25 10:59:27;;;;;;;4.80;4.30;;;29.60;99.90;;;;;;5093771;28;20245;-67
2022/08/25 11:02:21;;;;;;;7.18;4.18;;;29.80;99.90;;;;;;5093947;28;20181;-67
2022/08/25 11:05:10;;;;;;;5.82;4.40;;;29.90;99.90;;;;;;5091921;28;20165;-67
2022/08/25 11:07:47;;;;;;;5.00;4.50;;;30.00;99.90;;;;;;5093371;28;20234;-67
2022/08/25 11:10:44;;;;;;;6.35;4.20;;;30.00;99.90;;;;;;5093763;28;20166;-67
2022/08/25 11:13:18;;;;;;;5.70;4.40;;;30.00;99.90;;;;;;5083945;28;20216;-67
2022/08/25 11:15:51;;;;;;;7.32;4.68;;;30.10;99.90;;;;;;5093272;28;20507;-67
2022/08/25 11:18:17;;;;;;;6.15;4.18;;;30.30;99.90;;;;;;5093688;28;20702;-70
2022/08/25 11:21:04;;;;;;;5.22;4.30;;;30.40;99.90;;;;;;5097101;28;20232;-68
2022/08/25 11:23:37;;;;;;;6.65;4.10;;;30.50;99.90;;;;;;5097928;28;20541;-69
2022/08/25 11:26:16;;;;;;;5.68;3.92;;;30.50;99.90;;;;;;5097390;28;20153;-69
2022/08/25 11:29:13;;;;;;;5.03;4.38;;;30.60;99.90;;;;;;5095859;28;20180;-69
2022/08/25 11:31:43;;;;;;;5.05;3.92;;;30.80;99.90;;;;;;5083149;28;20563;-69
2022/08/25 11:34:14;;;;;;;4.95;3.90;;;31.00;99.90;;;;;;5096602;28;20593;-69
2022/08/25 11:36:56;;;;;;;6.78;4.00;;;31.30;99.90;;;;;;5095414;28;20219;-69
2022/08/25 11:39:50;;;;;;;5.20;3.80;;;31.50;99.90;;;;;;5097260;28;20168;-69
2022/08/25 11:42:37;;;;;;;6.57;3.50;;;31.60;99.90;;;;;;5097157;28;20610;-69
2022/08/25 11:45:29;;;;;;;4.75;3.42;;;31.80;99.90;;;;;;5096639;28;20168;-69
2022/08/25 11:48:07;;;;;;;5.20;3.88;;;32.10;99.90;;;;;;5096872;28;20173;-69
2022/08/25 11:50:34;;;;;;;4.63;3.55;;;32.10;99.90;;;;;;5096480;28;20183;-69
2022/08/25 11:53:14;;;;;;;4.75;3.55;;;32.20;99.90;;;;;;5096511;28;20677;-69
2022/08/25 11:55:53;;;;;;;6.32;3.95;;;32.20;99.90;;;;;;5094987;28;20184;-69
2022/08/25 11:58:47;;;;;;;4.43;3.63;;;32.10;99.90;;;;;;5095039;28;20165;-69
2022/08/25 12:01:43;;;;;;;5.78;4.13;;;32.30;99.90;;;;;;5094881;28;20200;-69
2022/08/25 12:04:35;;;;;;;6.72;3.75;;;32.50;99.90;;;;;;5094898;28;20197;-68
2022/08/25 12:07:09;;;;;;;5.78;3.40;;;32.40;99.90;;;;;;5088841;28;20197;-69
2022/08/25 12:09:50;;;;;;;4.47;3.60;;;32.60;99.90;;;;;;5096070;28;20184;-69
2022/08/25 12:12:31;;;;;;;3.28;2.97;;;32.90;99.90;;;;;;5095915;28;20161;-69
2022/08/25 12:15:24;;;;;;;5.20;3.50;;;33.10;99.90;;;;;;5094620;28;20634;-69
2022/08/25 12:18:11;;;;;;;4.90;3.70;;;33.30;99.90;;;;;;5095645;28;20169;-69
2022/08/25 12:20:52;;;;;;;6.20;3.50;;;33.50;99.90;;;;;;5095692;28;20201;-69
2022/08/25 12:23:27;;;;;;;5.13;3.50;;;33.60;99.90;;;;;;5095753;28;20193;-69
2022/08/25 12:25:56;;;;;;;4.90;3.30;;;33.60;99.90;;;;;;5095823;28;20255;-69
2022/08/25 12:28:31;;;;;;;5.60;3.55;;;33.70;99.90;;;;;;5095685;28;20161;-69
2022/08/25 12:31:04;;;;;;;4.63;3.20;;;33.90;99.90;;;;;;5095523;28;20597;-69
2022/08/25 12:33:49;;;;;;;5.50;3.30;;;34.00;99.90;;;;;;5095758;28;20572;-69
2022/08/25 12:36:30;;;;;;;4.93;3.40;;;33.90;99.90;;;;;;5095830;28;20614;-69
2022/08/25 12:39:22;;;;;;;5.07;3.15;;;33.80;99.90;;;;;;5095667;28;20181;-69
2022/08/25 12:42:01;;;;;;;5.72;3.35;;;33.60;99.90;;;;;;5094151;28;20696;-69
2022/08/25 12:44:41;;;;;;;5.00;3.15;;;33.80;99.90;;;;;;5095537;28;20733;-69
2022/08/25 12:47:33;;;;;;;4.40;3.30;;;33.70;99.90;;;;;;5095456;28;20157;-69
2022/08/25 12:50:24;;;;;;;4.15;3.03;;;34.00;99.90;;;;;;5090951;28;20272;-69
2022/08/25 12:52:51;;;;;;;6.22;3.25;;;34.10;99.90;;;;;;5095141;28;20707;-69
2022/08/25 12:55:19;;;;;;;6.45;3.08;;;33.70;99.90;;;;;;5093983;28;20181;-69
2022/08/25 12:57:56;;;;;;;4.57;3.30;;;33.10;99.90;;;;;;5095446;28;20178;-69
2022/08/25 13:00:25;;;;;;;4.00;3.33;;;32.80;99.90;;;;;;5095613;28;20189;-69
2022/08/25 13:03:12;;;;;;;4.30;3.42;;;32.50;99.90;;;;;;5095034;28;20193;-69
2022/08/25 13:06:31;;;;;;;5.68;3.53;;;32.20;99.90;;;;;;5094902;28;20509;-69
2022/08/25 13:09:18;;;;;;;4.45;3.33;;;32.10;99.90;;;;;;5052905;28;20658;-69
2022/08/25 13:12:01;;;;;;;5.28;3.42;;;32.50;99.90;;;;;;5052677;28;20178;-69